Time;durP1;ratioP1;P1;durP2;ratioP2;P2;SDS_P1;SDS_P2;PMS_P1;PMS_P2;Temp;Humidity;BMP_temperature;BMP_pressure;BME280_temperature;BME280_humidity;BME280_pressure;Samples;Min_cycle;Max_cycle;Signal;HPM_P1;HPM_P2
2023/04/19 00:02:02;;;;;;;2.65;2.45;;;16.70;63.80;;;;;;5054726;28;20256;-63
2023/04/19 00:04:51;;;;;;;3.45;2.72;;;16.70;65.40;;;;;;5055711;28;20220;-63
2023/04/19 00:07:40;;;;;;;2.30;2.10;;;16.70;64.00;;;;;;5055184;28;20646;-63
2023/04/19 00:10:29;;;;;;;2.00;1.90;;;16.70;63.20;;;;;;5058821;28;20235;-64
2023/04/19 00:13:17;;;;;;;3.58;2.58;;;16.80;63.70;;;;;;5064449;28;20221;-65
2023/04/19 00:16:06;;;;;;;3.38;2.33;;;16.80;64.90;;;;;;5060115;28;20197;-63
2023/04/19 00:18:55;;;;;;;4.05;2.60;;;16.80;64.90;;;;;;5056008;28;20257;-63
2023/04/19 00:21:43;;;;;;;2.40;2.20;;;16.80;63.50;;;;;;5054672;28;20765;-64
2023/04/19 00:24:31;;;;;;;3.30;2.67;;;16.90;64.40;;;;;;5035584;28;20236;-63
2023/04/19 00:27:20;;;;;;;5.95;2.60;;;16.90;63.70;;;;;;5034260;28;20329;-63
2023/04/19 00:30:09;;;;;;;2.85;2.30;;;16.90;64.10;;;;;;5033794;28;20629;-63
2023/04/19 00:32:57;;;;;;;3.30;2.20;;;16.90;63.30;;;;;;5034414;28;20194;-63
2023/04/19 00:35:45;;;;;;;2.20;2.08;;;16.90;62.80;;;;;;5034373;28;20197;-63
2023/04/19 00:38:33;;;;;;;2.55;1.75;;;16.90;62.90;;;;;;5033811;28;20229;-63
2023/04/19 00:41:22;;;;;;;3.33;1.90;;;16.90;62.60;;;;;;5034168;28;20839;-63
2023/04/19 00:44:11;;;;;;;2.67;2.25;;;16.90;62.50;;;;;;5033590;28;20206;-63
2023/04/19 00:47:00;;;;;;;2.20;2.00;;;16.80;61.80;;;;;;5034050;28;20340;-64
2023/04/19 00:49:48;;;;;;;2.60;2.28;;;16.80;62.40;;;;;;5033559;28;20292;-63
2023/04/19 00:52:36;;;;;;;2.83;2.17;;;16.80;62.20;;;;;;5033460;28;20225;-63
2023/04/19 00:55:24;;;;;;;2.17;2.00;;;16.80;62.70;;;;;;5033466;28;20194;-63
2023/04/19 00:58:13;;;;;;;2.20;2.00;;;16.70;75.40;;;;;;5033833;28;20230;-63
2023/04/19 01:01:02;;;;;;;2.40;2.17;;;16.70;61.60;;;;;;5033185;28;20202;-63
2023/04/19 01:03:50;;;;;;;3.35;3.15;;;16.80;62.00;;;;;;5033475;28;20209;-63
2023/04/19 01:06:41;;;;;;;2.08;1.88;;;16.70;61.80;;;;;;5033802;28;20244;-63
2023/04/19 01:09:29;;;;;;;2.22;1.90;;;16.70;61.40;;;;;;5033903;28;20257;-63
2023/04/19 01:12:17;;;;;;;1.83;1.65;;;16.80;62.40;;;;;;5033213;28;20612;-63
2023/04/19 01:15:07;;;;;;;3.22;2.00;;;16.70;62.50;;;;;;5033300;28;20248;-63
2023/04/19 01:17:56;;;;;;;2.85;2.30;;;16.70;62.40;;;;;;5033857;28;20225;-63
2023/04/19 01:20:44;;;;;;;2.40;2.17;;;16.80;62.30;;;;;;5033190;28;20670;-63
2023/04/19 01:23:34;;;;;;;2.03;1.92;;;16.80;62.50;;;;;;5046558;28;20220;-63
2023/04/19 01:26:22;;;;;;;2.40;2.20;;;16.90;62.60;;;;;;5053900;28;20288;-63
2023/04/19 01:29:10;;;;;;;2.47;2.17;;;16.90;61.60;;;;;;5052875;28;20306;-63
2023/04/19 01:31:58;;;;;;;2.03;1.90;;;16.90;62.10;;;;;;5053727;28;20205;-63
2023/04/19 01:34:47;;;;;;;2.17;1.90;;;17.00;62.50;;;;;;5053925;28;20287;-63
2023/04/19 01:37:35;;;;;;;2.92;2.63;;;17.00;59.90;;;;;;5053531;28;20202;-63
2023/04/19 01:40:25;;;;;;;2.38;2.17;;;16.90;60.00;;;;;;5045912;28;20295;-63
2023/04/19 01:43:16;;;;;;;2.25;1.70;;;16.90;60.30;;;;;;5036542;28;20765;-63
2023/04/19 01:46:04;;;;;;;1.67;1.58;;;16.90;60.50;;;;;;5037574;28;20694;-63
2023/04/19 01:48:52;;;;;;;4.00;1.77;;;16.80;59.30;;;;;;5031860;28;20305;-63
2023/04/19 01:51:40;;;;;;;2.10;1.90;;;16.80;59.40;;;;;;5033282;28;20220;-63
2023/04/19 01:54:28;;;;;;;2.22;2.03;;;16.80;59.50;;;;;;5031596;28;20290;-63
2023/04/19 01:57:17;;;;;;;2.58;2.38;;;16.80;59.80;;;;;;5031819;28;20209;-63
2023/04/19 02:00:07;;;;;;;2.45;1.73;;;16.70;59.50;;;;;;5051781;28;20221;-63
2023/04/19 02:02:55;;;;;;;3.15;2.20;;;16.70;60.20;;;;;;5052208;28;20229;-63
2023/04/19 02:05:43;;;;;;;2.03;1.70;;;16.70;59.80;;;;;;5043814;28;20208;-63
2023/04/19 02:08:31;;;;;;;1.95;1.75;;;16.70;59.90;;;;;;5031982;28;20639;-62
2023/04/19 02:11:19;;;;;;;3.10;1.75;;;16.60;59.90;;;;;;5032403;28;20690;-63
2023/04/19 02:14:09;;;;;;;2.83;2.53;;;16.60;59.70;;;;;;5033060;28;20194;-63
2023/04/19 02:16:57;;;;;;;3.50;2.30;;;16.60;60.20;;;;;;5032628;28;20264;-63
2023/04/19 02:19:45;;;;;;;2.40;1.80;;;16.60;61.90;;;;;;5031592;28;20265;-63
2023/04/19 02:22:33;;;;;;;2.22;1.80;;;16.60;61.10;;;;;;5037964;28;20702;-63
2023/04/19 02:25:21;;;;;;;2.30;2.10;;;16.50;60.10;;;;;;5050416;28;20201;-63
2023/04/19 02:28:09;;;;;;;4.45;1.88;;;16.50;76.80;;;;;;5032533;28;20284;-63
2023/04/19 02:30:59;;;;;;;2.88;2.22;;;16.50;61.90;;;;;;5032412;28;20556;-63
2023/04/19 02:33:47;;;;;;;2.40;2.17;;;16.60;61.80;;;;;;5039271;28;20233;-63
2023/04/19 02:36:35;;;;;;;2.30;1.95;;;16.60;62.70;;;;;;5036994;28;20198;-63
2023/04/19 02:39:23;;;;;;;2.20;1.95;;;16.70;61.10;;;;;;5032029;28;20229;-63
2023/04/19 02:42:11;;;;;;;1.90;1.80;;;16.80;60.70;;;;;;5031121;28;20227;-63
2023/04/19 02:44:59;;;;;;;2.42;2.00;;;16.80;60.40;;;;;;5033178;28;20288;-63
2023/04/19 02:47:48;;;;;;;2.28;2.08;;;16.80;61.80;;;;;;5031785;28;20206;-63
2023/04/19 02:50:37;;;;;;;1.90;1.80;;;16.80;60.20;;;;;;5032492;28;20194;-63
2023/04/19 02:53:26;;;;;;;2.00;1.90;;;16.70;59.60;;;;;;5031615;28;20574;-63
2023/04/19 02:56:15;;;;;;;3.33;1.70;;;16.70;59.30;;;;;;5050705;28;20202;-63
2023/04/19 02:59:04;;;;;;;2.35;1.90;;;16.60;59.80;;;;;;5051274;28;20229;-63
2023/04/19 03:01:52;;;;;;;1.98;1.85;;;16.60;60.40;;;;;;5050835;28;20290;-63
2023/04/19 03:04:42;;;;;;;2.05;1.95;;;16.60;60.40;;;;;;5052669;28;20197;-63
2023/04/19 03:07:30;;;;;;;1.73;1.58;;;16.60;59.80;;;;;;5051591;28;20307;-63
2023/04/19 03:10:18;;;;;;;3.05;1.83;;;16.50;59.70;;;;;;5034203;28;20669;-62
2023/04/19 03:13:06;;;;;;;1.90;1.50;;;16.50;60.30;;;;;;5032212;28;20304;-63
2023/04/19 03:15:54;;;;;;;2.53;1.80;;;16.50;61.50;;;;;;5032701;28;20209;-63
2023/04/19 03:18:42;;;;;;;2.80;1.90;;;16.50;60.70;;;;;;5051241;28;20601;-63
2023/04/19 03:21:32;;;;;;;2.35;1.80;;;16.40;61.10;;;;;;5051276;28;20623;-64
2023/04/19 03:24:26;;;;;;;1.67;1.58;;;16.40;61.60;;;;;;5030950;28;20360;-63
2023/04/19 03:27:14;;;;;;;3.50;2.03;;;16.30;60.20;;;;;;5030791;28;20663;-63
2023/04/19 03:30:02;;;;;;;1.75;1.50;;;16.30;60.20;;;;;;5032175;28;20275;-63
2023/04/19 03:32:51;;;;;;;1.75;1.40;;;16.30;60.20;;;;;;5031492;28;20683;-63
2023/04/19 03:35:39;;;;;;;2.90;1.83;;;16.20;60.30;;;;;;5032850;28;20240;-63
2023/04/19 03:38:29;;;;;;;5.43;1.85;;;16.20;60.40;;;;;;5036006;28;20781;-63
2023/04/19 03:41:20;;;;;;;1.95;1.50;;;16.10;60.60;;;;;;5035011;28;20201;-63
2023/04/19 03:44:08;;;;;;;2.10;1.88;;;16.10;61.20;;;;;;5034448;28;20338;-63
2023/04/19 03:46:56;;;;;;;2.08;1.75;;;16.10;60.60;;;;;;5034696;28;20647;-63
2023/04/19 03:49:44;;;;;;;3.00;1.58;;;16.10;62.50;;;;;;5034552;28;20300;-63
2023/04/19 03:52:32;;;;;;;2.90;2.00;;;16.20;62.90;;;;;;5035410;28;20686;-63
2023/04/19 03:55:22;;;;;;;1.67;1.57;;;16.40;63.00;;;;;;5033676;28;20240;-63
2023/04/19 03:58:10;;;;;;;2.92;1.60;;;16.70;76.50;;;;;;5035780;28;20695;-63
2023/04/19 04:00:58;;;;;;;1.80;1.70;;;16.70;62.30;;;;;;5034744;28;20281;-63
2023/04/19 04:03:47;;;;;;;1.70;1.50;;;16.90;62.20;;;;;;5035226;28;20221;-63
2023/04/19 04:06:35;;;;;;;4.90;1.85;;;17.00;62.60;;;;;;5054618;28;20208;-63
2023/04/19 04:09:23;;;;;;;3.00;1.85;;;17.00;61.30;;;;;;5054386;28;20217;-63
2023/04/19 04:12:13;;;;;;;2.35;1.52;;;17.00;61.30;;;;;;5053981;28;20216;-63
2023/04/19 04:15:01;;;;;;;2.42;1.52;;;17.00;61.00;;;;;;5055145;28;20194;-63
2023/04/19 04:17:50;;;;;;;1.58;1.48;;;17.00;61.80;;;;;;5055028;28;20574;-63
2023/04/19 04:20:38;;;;;;;1.98;1.67;;;16.90;60.90;;;;;;5054426;28;20250;-62
2023/04/19 04:23:27;;;;;;;2.25;1.77;;;16.90;60.70;;;;;;5040643;28;20249;-63
2023/04/19 04:26:15;;;;;;;3.58;1.58;;;16.80;60.60;;;;;;5034183;28;20330;-63
2023/04/19 04:29:04;;;;;;;3.05;1.48;;;16.70;60.40;;;;;;5034353;28;20739;-63
2023/04/19 04:31:52;;;;;;;2.03;1.65;;;16.60;60.20;;;;;;5034572;28;20283;-63
2023/04/19 04:34:41;;;;;;;2.80;2.08;;;16.50;60.50;;;;;;5035376;28;20240;-63
2023/04/19 04:37:32;;;;;;;1.60;1.50;;;16.50;60.60;;;;;;5034683;28;20589;-63
2023/04/19 04:40:21;;;;;;;2.47;1.70;;;16.40;60.60;;;;;;5041443;28;20257;-63
2023/04/19 04:43:09;;;;;;;1.98;1.77;;;16.40;61.10;;;;;;5053431;28;20288;-63
2023/04/19 04:46:00;;;;;;;2.08;1.50;;;16.30;61.10;;;;;;5054658;28;20343;-63
2023/04/19 04:48:48;;;;;;;2.08;1.52;;;16.20;61.00;;;;;;5053090;28;20222;-63
2023/04/19 04:51:36;;;;;;;1.77;1.40;;;16.20;61.70;;;;;;5052551;28;20708;-63
2023/04/19 04:54:24;;;;;;;2.58;1.90;;;16.20;61.60;;;;;;5059228;28;20221;-63
2023/04/19 04:57:12;;;;;;;1.70;1.55;;;16.10;61.40;;;;;;5059244;28;20211;-63
2023/04/19 05:00:00;;;;;;;1.90;1.60;;;16.10;61.60;;;;;;5053876;28;20789;-63
2023/04/19 05:02:49;;;;;;;3.60;1.80;;;16.10;61.80;;;;;;5054769;28;20205;-63
2023/04/19 05:05:38;;;;;;;2.70;1.77;;;16.00;62.30;;;;;;5054101;28;20231;-62
2023/04/19 05:08:26;;;;;;;2.92;1.90;;;16.00;62.80;;;;;;5052837;28;20359;-63
2023/04/19 05:11:15;;;;;;;1.85;1.50;;;16.00;62.70;;;;;;5052801;28;20233;-63
2023/04/19 05:14:03;;;;;;;2.60;2.22;;;15.90;62.60;;;;;;5054545;28;20243;-63
2023/04/19 05:16:51;;;;;;;2.38;1.75;;;15.90;62.00;;;;;;5053032;28;20332;-63
2023/04/19 05:19:40;;;;;;;1.52;1.42;;;15.90;62.80;;;;;;5054734;28;20229;-63
2023/04/19 05:22:28;;;;;;;3.60;1.50;;;16.00;64.20;;;;;;5047618;28;20269;-63
2023/04/19 05:25:16;;;;;;;1.77;1.67;;;16.10;63.90;;;;;;5034224;28;20675;-63
2023/04/19 05:28:05;;;;;;;2.83;1.70;;;16.40;77.80;;;;;;5034364;28;20717;-63
2023/04/19 05:30:53;;;;;;;2.57;1.60;;;16.20;63.30;;;;;;5034424;28;20194;-63
2023/04/19 05:33:41;;;;;;;4.10;2.53;;;16.10;62.90;;;;;;5033381;28;20427;-63
2023/04/19 05:36:31;;;;;;;1.93;1.30;;;16.10;62.60;;;;;;5033134;28;20766;-63
2023/04/19 05:39:19;;;;;;;2.23;1.40;;;16.00;62.30;;;;;;5033694;28;20225;-63
2023/04/19 05:42:07;;;;;;;1.50;1.30;;;16.00;62.70;;;;;;5033017;28;20679;-63
2023/04/19 05:44:55;;;;;;;3.20;1.40;;;16.00;62.40;;;;;;5033153;28;20308;-62
2023/04/19 05:47:43;;;;;;;6.80;1.88;;;15.90;62.40;;;;;;5033423;28;20288;-62
2023/04/19 05:50:31;;;;;;;3.40;1.90;;;15.90;62.20;;;;;;5046489;28;20593;-63
2023/04/19 05:53:21;;;;;;;1.60;1.50;;;15.90;62.70;;;;;;5040223;28;20264;-62
2023/04/19 05:56:09;;;;;;;2.87;1.40;;;15.90;62.50;;;;;;5032921;28;20201;-62
2023/04/19 05:58:58;;;;;;;2.30;1.60;;;15.90;62.80;;;;;;5046815;28;20767;-63
2023/04/19 06:01:46;;;;;;;2.87;1.37;;;15.90;62.70;;;;;;5051800;28;20575;-63
2023/04/19 06:04:34;;;;;;;1.57;1.20;;;15.90;62.70;;;;;;5033133;28;20690;-63
2023/04/19 06:07:23;;;;;;;2.22;1.33;;;15.90;62.60;;;;;;5032023;28;20281;-62
2023/04/19 06:10:22;;;;;;;1.75;1.38;;;15.90;62.90;;;;;;5032509;28;20226;-63
2023/04/19 06:13:10;;;;;;;2.63;1.33;;;15.90;63.20;;;;;;5045004;28;20205;-64
2023/04/19 06:15:58;;;;;;;4.70;1.50;;;15.90;63.30;;;;;;5052270;28;20198;-64
2023/04/19 06:18:46;;;;;;;2.75;1.33;;;15.90;63.70;;;;;;5052996;28;20228;-66
2023/04/19 06:21:34;;;;;;;3.83;1.83;;;16.00;64.80;;;;;;5052410;28;20392;-65
2023/04/19 06:24:22;;;;;;;1.48;1.38;;;16.10;64.10;;;;;;5034450;28;20261;-66
2023/04/19 06:27:12;;;;;;;1.00;1.00;;;16.30;63.50;;;;;;5032073;28;20565;-64
2023/04/19 06:30:00;;;;;;;1.57;1.30;;;16.40;63.50;;;;;;5033088;28;20351;-62
2023/04/19 06:32:49;;;;;;;2.63;1.23;;;16.50;62.70;;;;;;5032739;28;20206;-61
2023/04/19 06:35:37;;;;;;;2.88;1.40;;;16.50;62.00;;;;;;5052370;28;20197;-61
2023/04/19 06:38:25;;;;;;;3.90;1.38;;;16.50;62.40;;;;;;5051226;28;20217;-62
2023/04/19 06:41:13;;;;;;;1.75;1.40;;;16.50;62.20;;;;;;5052255;28;20276;-62
2023/04/19 06:44:03;;;;;;;4.63;1.10;;;16.40;62.40;;;;;;5052575;28;20232;-64
2023/04/19 06:46:51;;;;;;;2.03;1.63;;;16.40;62.50;;;;;;5052382;28;20217;-65
2023/04/19 06:49:39;;;;;;;2.38;1.63;;;16.50;62.70;;;;;;5052254;28;20217;-65
2023/04/19 06:52:28;;;;;;;1.73;1.50;;;16.40;62.40;;;;;;5051845;28;20578;-62
2023/04/19 06:55:16;;;;;;;1.58;1.27;;;16.40;62.40;;;;;;5052392;28;20262;-65
2023/04/19 06:58:06;;;;;;;4.90;1.98;;;16.60;71.10;;;;;;5051687;28;20644;-65
2023/04/19 07:00:56;;;;;;;2.78;1.40;;;16.50;63.00;;;;;;5052447;28;20202;-64
2023/04/19 07:03:45;;;;;;;6.28;2.63;;;16.50;62.70;;;;;;5051872;28;20208;-65
2023/04/19 07:06:34;;;;;;;4.57;3.03;;;16.50;62.50;;;;;;5053062;28;20228;-65
2023/04/19 07:09:22;;;;;;;2.05;1.85;;;16.50;62.90;;;;;;5051863;28;20304;-65
2023/04/19 07:12:10;;;;;;;3.40;1.67;;;16.50;63.00;;;;;;5049743;28;20306;-64
2023/04/19 07:14:58;;;;;;;2.88;1.40;;;16.50;63.00;;;;;;5035384;28;20241;-65
2023/04/19 07:17:48;;;;;;;1.10;1.10;;;16.50;62.30;;;;;;5034861;28;20206;-64
2023/04/19 07:20:36;;;;;;;3.30;1.75;;;16.50;61.50;;;;;;5032568;28;20202;-65
2023/04/19 07:23:24;;;;;;;2.47;1.47;;;16.50;62.30;;;;;;5038229;28;20684;-65
2023/04/19 07:26:13;;;;;;;1.50;1.40;;;16.50;62.40;;;;;;5034904;28;20380;-66
2023/04/19 07:29:01;;;;;;;1.67;1.00;;;16.60;62.60;;;;;;5052254;28;20232;-66
2023/04/19 07:31:50;;;;;;;1.55;1.45;;;16.50;62.20;;;;;;5051184;28;20594;-65
2023/04/19 07:34:41;;;;;;;2.92;1.42;;;16.60;62.60;;;;;;5053103;28;20278;-64
2023/04/19 07:37:30;;;;;;;1.35;1.10;;;16.70;61.90;;;;;;5053588;28;20197;-66
2023/04/19 07:40:18;;;;;;;1.42;1.30;;;16.80;61.60;;;;;;5034513;28;20221;-64
2023/04/19 07:43:06;;;;;;;3.22;1.50;;;16.90;61.40;;;;;;5031324;28;20275;-65
2023/04/19 07:45:54;;;;;;;2.22;1.55;;;17.00;61.10;;;;;;5033971;28;20714;-62
2023/04/19 07:48:43;;;;;;;3.28;1.30;;;17.00;61.60;;;;;;5051847;28;20236;-63
2023/04/19 07:51:32;;;;;;;1.80;1.40;;;17.10;61.90;;;;;;5051363;28;20292;-66
2023/04/19 07:54:20;;;;;;;2.42;1.42;;;17.00;61.10;;;;;;5053265;28;20203;-66
2023/04/19 07:57:08;;;;;;;3.00;1.20;;;17.10;60.40;;;;;;5051253;28;20225;-67
2023/04/19 07:59:58;;;;;;;3.03;1.45;;;17.10;61.30;;;;;;5033279;28;20230;-64
2023/04/19 08:02:46;;;;;;;2.35;1.20;;;17.20;61.20;;;;;;5036733;28;20280;-67
2023/04/19 08:05:35;;;;;;;1.92;1.23;;;17.20;61.00;;;;;;5052334;28;20627;-65
2023/04/19 08:08:24;;;;;;;1.48;1.20;;;17.20;60.70;;;;;;5032125;28;20327;-61
2023/04/19 08:11:12;;;;;;;2.83;1.30;;;17.20;60.10;;;;;;5037262;28;20694;-66
2023/04/19 08:14:00;;;;;;;1.80;1.63;;;17.20;61.00;;;;;;5032139;28;20213;-66
2023/04/19 08:17:08;;;;;;;3.55;1.90;;;17.20;60.20;;;;;;5031966;28;20194;-67
2023/04/19 08:20:00;;;;;;;3.42;1.58;;;17.20;60.00;;;;;;5031743;28;20367;-65
2023/04/19 08:22:47;;;;;;;1.80;1.30;;;17.20;59.80;;;;;;5033892;28;20776;-65
2023/04/19 08:25:37;;;;;;;2.28;1.50;;;17.20;60.40;;;;;;5035436;28;20263;-65
2023/04/19 08:28:25;;;;;;;2.65;1.60;;;17.20;59.60;;;;;;5035144;28;20218;-65
2023/04/19 08:31:13;;;;;;;1.85;1.75;;;17.20;59.40;;;;;;5045123;28;20216;-67
2023/04/19 08:34:01;;;;;;;2.03;1.20;;;17.20;59.70;;;;;;5054324;28;20251;-66
2023/04/19 08:36:49;;;;;;;2.17;1.50;;;17.20;60.30;;;;;;5054667;28;20198;-65
2023/04/19 08:39:50;;;;;;;1.95;1.10;;;17.20;59.40;;;;;;5040943;28;20221;-65
2023/04/19 08:42:40;;;;;;;2.45;1.42;;;17.20;59.20;;;;;;5033795;28;20202;-65
2023/04/19 08:45:28;;;;;;;3.20;1.60;;;17.10;59.40;;;;;;5035054;28;20248;-65
2023/04/19 08:48:17;;;;;;;3.83;1.55;;;17.40;75.10;;;;;;5034453;28;20281;-65
2023/04/19 08:51:06;;;;;;;4.25;1.40;;;17.10;59.80;;;;;;5034084;28;20264;-65
2023/04/19 08:53:56;;;;;;;2.25;1.75;;;17.20;59.30;;;;;;5035300;28;20224;-66
2023/04/19 08:56:44;;;;;;;1.60;1.33;;;17.20;59.70;;;;;;5035136;28;20190;-66
2023/04/19 08:59:34;;;;;;;1.70;1.40;;;17.30;59.30;;;;;;5034450;28;20313;-66
2023/04/19 09:02:22;;;;;;;2.10;1.60;;;17.40;59.40;;;;;;5033109;28;20210;-65
2023/04/19 09:05:12;;;;;;;1.60;1.50;;;17.50;58.60;;;;;;5033020;28;20210;-66
2023/04/19 09:08:21;;;;;;;1.60;1.50;;;17.70;68.60;;;;;;5037942;28;20205;-66
2023/04/19 09:11:09;;;;;;;4.70;1.80;;;17.70;59.20;;;;;;5049058;28;20201;-66
2023/04/19 09:14:07;;;;;;;2.55;1.75;;;17.80;59.40;;;;;;5053655;28;20197;-66
2023/04/19 09:17:11;;;;;;;2.63;1.55;;;17.90;59.20;;;;;;5053949;28;20740;-66
2023/04/19 09:19:59;;;;;;;1.58;1.40;;;18.00;60.00;;;;;;5046209;28;20275;-66
2023/04/19 09:23:04;;;;;;;1.88;1.58;;;18.20;59.20;;;;;;5051204;28;20578;-68
2023/04/19 09:25:56;;;;;;;1.88;1.20;;;18.30;59.30;;;;;;5045861;28;20217;-64
2023/04/19 09:29:05;;;;;;;1.48;1.30;;;18.40;59.40;;;;;;5051252;28;20217;-65
2023/04/19 09:31:58;;;;;;;4.53;1.63;;;18.80;59.90;;;;;;5051019;28;20747;-66
2023/04/19 09:34:53;;;;;;;2.60;1.63;;;19.10;58.70;;;;;;5052441;28;20383;-66
2023/04/19 09:37:41;;;;;;;3.85;1.33;;;19.50;58.10;;;;;;5068846;28;20224;-66
2023/04/19 09:40:32;;;;;;;2.90;1.83;;;19.90;57.10;;;;;;5061720;28;20233;-66
2023/04/19 09:43:24;;;;;;;1.80;1.60;;;20.10;57.90;;;;;;5054161;28;20201;-66
2023/04/19 09:46:34;;;;;;;2.83;1.42;;;20.40;57.60;;;;;;5053326;28;20209;-65
2023/04/19 09:49:24;;;;;;;1.83;1.48;;;20.80;57.00;;;;;;5049716;28;20222;-65
2023/04/19 09:52:33;;;;;;;1.33;1.23;;;20.90;56.10;;;;;;5053207;28;20197;-65
2023/04/19 09:55:23;;;;;;;1.13;1.13;;;21.10;56.20;;;;;;5053659;28;20294;-66
2023/04/19 09:58:16;;;;;;;1.95;1.35;;;21.30;67.20;;;;;;5045807;28;20670;-66
2023/04/19 10:01:05;;;;;;;2.97;1.73;;;21.70;67.30;;;;;;5053332;28;20202;-64
2023/04/19 10:04:05;;;;;;;2.20;1.55;;;21.60;54.70;;;;;;5044619;28;20206;-65
2023/04/19 10:07:07;;;;;;;1.75;1.20;;;21.70;54.30;;;;;;5046055;28;20224;-64
2023/04/19 10:10:17;;;;;;;3.70;1.58;;;21.90;51.40;;;;;;5049294;28;20218;-63
2023/04/19 10:13:12;;;;;;;3.90;1.40;;;21.90;53.60;;;;;;5044370;28;20271;-64
2023/04/19 10:16:04;;;;;;;6.72;1.60;;;22.10;54.30;;;;;;5053856;28;20211;-65
2023/04/19 10:19:08;;;;;;;9.45;2.05;;;22.30;53.50;;;;;;5032946;28;20699;-65
2023/04/19 10:21:57;;;;;;;2.10;1.40;;;22.30;54.10;;;;;;5036728;28;20586;-66
2023/04/19 10:25:11;;;;;;;4.30;2.15;;;22.40;54.30;;;;;;5047616;28;20198;-66
2023/04/19 10:28:00;;;;;;;1.55;1.45;;;22.70;52.70;;;;;;5052813;28;20715;-66
2023/04/19 10:31:00;;;;;;;2.67;1.40;;;22.70;53.30;;;;;;5052140;28;20276;-63
2023/04/19 10:33:49;;;;;;;4.00;1.33;;;22.90;52.60;;;;;;5052194;28;20229;-63
2023/04/19 10:36:38;;;;;;;2.08;1.40;;;22.90;52.90;;;;;;5050926;28;20229;-66
2023/04/19 10:39:40;;;;;;;3.92;1.92;;;23.10;53.30;;;;;;5051810;28;20653;-66
2023/04/19 10:43:01;;;;;;;2.22;1.38;;;23.10;53.00;;;;;;5051031;28;20278;-67
2023/04/19 10:45:51;;;;;;;2.05;1.55;;;23.10;52.80;;;;;;5052840;28;20209;-66
2023/04/19 10:48:47;;;;;;;5.47;1.95;;;23.20;51.80;;;;;;5051523;28;20225;-66
2023/04/19 10:51:42;;;;;;;1.95;1.67;;;23.30;52.30;;;;;;5050870;28;20201;-67
2023/04/19 10:54:31;;;;;;;4.20;2.47;;;23.30;52.40;;;;;;5052189;28;20194;-66
2023/04/19 10:57:19;;;;;;;2.80;1.80;;;23.40;52.20;;;;;;5052705;28;20198;-66
2023/04/19 11:00:20;;;;;;;2.33;1.67;;;23.40;51.70;;;;;;5053157;28;20257;-65
2023/04/19 11:03:41;;;;;;;1.77;1.67;;;23.40;52.80;;;;;;5052454;28;20227;-65
2023/04/19 11:06:31;;;;;;;6.82;1.67;;;23.50;52.60;;;;;;5051207;28;20228;-64
2023/04/19 11:09:22;;;;;;;3.42;1.70;;;23.60;52.70;;;;;;5052419;28;20259;-65
2023/04/19 11:12:13;;;;;;;10.20;2.47;;;;;;;;;;5051862;28;20243;-66
2023/04/19 11:15:05;;;;;;;3.92;2.42;;;23.70;52.20;;;;;;5051480;28;20203;-65
2023/04/19 11:17:53;;;;;;;2.35;1.95;;;23.80;52.00;;;;;;5039256;28;20204;-65
2023/04/19 11:21:00;;;;;;;3.13;1.45;;;23.90;52.30;;;;;;5032043;28;20208;-66
2023/04/19 11:23:49;;;;;;;1.75;1.40;;;24.00;52.90;;;;;;5048322;28;20795;-66
2023/04/19 11:26:37;;;;;;;1.60;1.50;;;24.10;53.30;;;;;;5050051;28;20308;-66
2023/04/19 11:29:25;;;;;;;2.10;1.42;;;24.10;52.10;;;;;;5035328;28;20224;-67
2023/04/19 11:32:13;;;;;;;3.58;2.00;;;24.10;52.20;;;;;;5042947;28;20233;-67
2023/04/19 11:35:06;;;;;;;1.80;1.70;;;23.90;52.40;;;;;;5037547;28;20343;-67
2023/04/19 11:37:56;;;;;;;2.17;1.30;;;23.90;52.00;;;;;;5032168;28;20225;-67
2023/04/19 11:40:46;;;;;;;4.43;1.50;;;23.80;52.00;;;;;;5047972;28;20233;-63
2023/04/19 11:43:35;;;;;;;1.55;1.45;;;23.80;53.50;;;;;;5032097;28;20212;-67
2023/04/19 11:46:23;;;;;;;2.72;1.77;;;23.80;53.50;;;;;;5034375;28;20686;-68
2023/04/19 11:49:25;;;;;;;3.53;2.05;;;23.80;52.90;;;;;;5035702;28;20258;-66
2023/04/19 11:52:20;;;;;;;2.67;2.45;;;23.80;52.90;;;;;;5042160;28;20223;-63
2023/04/19 11:55:18;;;;;;;3.80;1.65;;;23.90;53.80;;;;;;5053395;28;20286;-67
2023/04/19 11:58:09;;;;;;;1.60;1.50;;;23.70;58.00;;;;;;5055151;28;20280;-67
2023/04/19 12:01:02;;;;;;;1.60;1.50;;;24.00;52.80;;;;;;5049462;28;20263;-67
2023/04/19 12:03:52;;;;;;;2.63;1.85;;;24.00;53.40;;;;;;5047753;28;20213;-66
2023/04/19 12:06:41;;;;;;;2.53;1.42;;;24.00;53.10;;;;;;5055032;28;20242;-63
2023/04/19 12:09:30;;;;;;;2.50;1.58;;;24.00;62.00;;;;;;5055279;28;20268;-64
2023/04/19 12:12:31;;;;;;;2.08;1.52;;;24.00;52.80;;;;;;5048377;28;20205;-64
2023/04/19 12:15:21;;;;;;;4.28;1.63;;;24.00;52.90;;;;;;5035579;28;20205;-63
2023/04/19 12:18:12;;;;;;;2.05;1.45;;;23.50;61.00;;;;;;5038414;28;20679;-64
2023/04/19 12:21:02;;;;;;;1.63;1.30;;;23.80;52.80;;;;;;5054045;28;20691;-64
2023/04/19 12:23:53;;;;;;;1.83;1.73;;;23.90;53.90;;;;;;5054531;28;20197;-64
2023/04/19 12:26:53;;;;;;;2.53;1.80;;;23.90;53.00;;;;;;5054096;28;20803;-63
2023/04/19 12:29:43;;;;;;;2.17;1.50;;;24.00;52.60;;;;;;5053715;28;20212;-62
2023/04/19 12:32:32;;;;;;;1.45;1.30;;;24.10;53.20;;;;;;5055334;28;20251;-63
2023/04/19 12:35:21;;;;;;;3.17;1.63;;;24.00;52.70;;;;;;5054306;28;20205;-66
2023/04/19 12:38:09;;;;;;;3.17;1.45;;;24.00;55.30;;;;;;5047221;28;20198;-68
2023/04/19 12:40:57;;;;;;;2.65;1.63;;;24.00;51.70;;;;;;5052263;28;20205;-66
2023/04/19 12:43:45;;;;;;;2.95;1.80;;;24.10;52.10;;;;;;5052547;28;20201;-65
2023/04/19 12:46:33;;;;;;;2.95;1.80;;;24.10;51.70;;;;;;5054349;28;20280;-67
2023/04/19 12:49:22;;;;;;;1.60;1.50;;;24.10;51.10;;;;;;5053756;28;20217;-68
2023/04/19 12:52:10;;;;;;;1.83;1.70;;;24.10;51.90;;;;;;5054046;28;20236;-66
2023/04/19 12:54:59;;;;;;;2.10;1.80;;;24.20;52.20;;;;;;5055651;28;20206;-64
2023/04/19 12:57:47;;;;;;;1.88;1.73;;;24.20;51.80;;;;;;5054620;28;20611;-66
2023/04/19 13:00:35;;;;;;;2.35;1.73;;;24.20;52.30;;;;;;5054685;28;20209;-67
2023/04/19 13:03:24;;;;;;;3.53;1.90;;;24.10;52.00;;;;;;5054729;28;20237;-68
2023/04/19 13:06:15;;;;;;;4.25;1.88;;;24.10;51.90;;;;;;5054413;28;20685;-66
2023/04/19 13:09:03;;;;;;;2.67;1.48;;;24.10;51.40;;;;;;5034022;28;20228;-65
2023/04/19 13:12:01;;;;;;;3.35;1.88;;;24.10;51.80;;;;;;5033773;28;20213;-67
2023/04/19 13:14:51;;;;;;;4.40;2.00;;;24.10;52.10;;;;;;5052978;28;20197;-67
2023/04/19 13:17:39;;;;;;;2.72;1.95;;;24.10;51.90;;;;;;5054056;28;20674;-66
2023/04/19 13:20:28;;;;;;;7.32;2.65;;;24.00;50.10;;;;;;5053025;28;20633;-66
2023/04/19 13:23:17;;;;;;;8.30;2.58;;;24.00;50.50;;;;;;5040016;28;20256;-66
2023/04/19 13:26:06;;;;;;;3.70;1.75;;;24.10;50.60;;;;;;5043062;28;20202;-68
2023/04/19 13:28:55;;;;;;;3.63;2.15;;;24.20;50.30;;;;;;5052403;28;20229;-67
2023/04/19 13:31:43;;;;;;;4.78;1.88;;;24.20;50.60;;;;;;5052995;28;20206;-67
2023/04/19 13:34:31;;;;;;;5.50;2.15;;;24.20;50.90;;;;;;5053314;28;20194;-67
2023/04/19 13:37:19;;;;;;;2.35;1.80;;;24.30;50.80;;;;;;5053674;28;20198;-67
2023/04/19 13:40:09;;;;;;;1.67;1.58;;;24.20;49.80;;;;;;5053493;28;20609;-66
2023/04/19 13:43:06;;;;;;;2.53;1.55;;;24.20;51.40;;;;;;5053193;28;20201;-69
2023/04/19 13:45:54;;;;;;;5.50;2.03;;;24.30;51.10;;;;;;5050208;28;20299;-68
2023/04/19 13:48:42;;;;;;;5.28;1.80;;;24.30;50.00;;;;;;5049990;28;20307;-67
2023/04/19 13:51:31;;;;;;;4.53;2.13;;;24.40;50.70;;;;;;5046294;28;20206;-65
2023/04/19 13:54:36;;;;;;;3.20;2.03;;;24.40;49.80;;;;;;5034539;28;20582;-66
2023/04/19 13:57:25;;;;;;;4.10;1.58;;;24.30;49.70;;;;;;5047449;28;20319;-67
2023/04/19 14:00:15;;;;;;;3.03;1.70;;;24.40;49.80;;;;;;5037003;28;20210;-67
2023/04/19 14:03:03;;;;;;;1.92;1.75;;;24.40;49.50;;;;;;5033233;28;20213;-67
2023/04/19 14:05:51;;;;;;;3.42;2.50;;;24.40;50.40;;;;;;5042298;28;20256;-68
2023/04/19 14:08:39;;;;;;;2.33;1.88;;;24.40;49.20;;;;;;5046743;28;20301;-66
2023/04/19 14:11:27;;;;;;;3.25;2.10;;;24.40;49.80;;;;;;5058164;28;20317;-66
2023/04/19 14:14:17;;;;;;;5.95;3.95;;;24.40;49.30;;;;;;5049803;28;20245;-66
2023/04/19 14:17:05;;;;;;;2.65;2.00;;;24.50;49.50;;;;;;5052145;28;20212;-66
2023/04/19 14:19:53;;;;;;;4.25;2.28;;;24.40;49.50;;;;;;5054324;28;20697;-66
2023/04/19 14:22:41;;;;;;;4.85;1.80;;;24.40;49.20;;;;;;5043034;28;20197;-66
2023/04/19 14:25:30;;;;;;;3.67;2.08;;;24.40;49.60;;;;;;5053983;28;20197;-67
2023/04/19 14:28:18;;;;;;;3.92;2.40;;;24.40;59.70;;;;;;5042819;28;20662;-66
2023/04/19 14:31:08;;;;;;;4.50;2.88;;;24.30;49.50;;;;;;5044608;28;20346;-64
2023/04/19 14:33:56;;;;;;;4.55;2.03;;;24.30;49.40;;;;;;5049477;28;20198;-63
2023/04/19 14:36:44;;;;;;;2.38;2.17;;;24.30;50.50;;;;;;5031378;28;20272;-64
2023/04/19 14:39:32;;;;;;;6.88;2.17;;;24.30;49.60;;;;;;5036249;28;20538;-64
2023/04/19 14:42:20;;;;;;;3.70;2.10;;;24.40;50.20;;;;;;5051623;28;20205;-64
2023/04/19 14:45:11;;;;;;;4.55;1.33;;;24.40;50.10;;;;;;5049854;28;20262;-64
2023/04/19 14:48:00;;;;;;;2.97;1.80;;;24.40;50.80;;;;;;5051702;28;20209;-64